sensor_id;sensor_type;location;lat;lon;timestamp;P1;durP1;ratioP1;P2;durP2;ratioP2
59689;SDS011;45557;50.298;18.930;2022-07-11T00:05:34;8.00;;;2.10;;
59689;SDS011;45557;50.298;18.930;2022-07-11T00:12:22;7.40;;;2.40;;
59689;SDS011;45557;50.298;18.930;2022-07-11T00:19:36;6.50;;;2.10;;
59689;SDS011;45557;50.298;18.930;2022-07-11T00:26:26;6.80;;;2.30;;
59689;SDS011;45557;50.298;18.930;2022-07-11T00:33:09;4.30;;;1.90;;
59689;SDS011;45557;50.298;18.930;2022-07-11T00:39:53;6.10;;;1.90;;
59689;SDS011;45557;50.298;18.930;2022-07-11T00:46:41;6.40;;;2.60;;
59689;SDS011;45557;50.298;18.930;2022-07-11T00:53:31;6.40;;;1.80;;
59689;SDS011;45557;50.298;18.930;2022-07-11T01:00:25;4.50;;;1.60;;
59689;SDS011;45557;50.298;18.930;2022-07-11T01:07:40;4.00;;;1.70;;
59689;SDS011;45557;50.298;18.930;2022-07-11T01:15:19;11.60;;;4.40;;
59689;SDS011;45557;50.298;18.930;2022-07-11T01:22:04;5.60;;;1.80;;
59689;SDS011;45557;50.298;18.930;2022-07-11T01:28:55;4.60;;;1.60;;
59689;SDS011;45557;50.298;18.930;2022-07-11T01:35:37;7.30;;;2.00;;
59689;SDS011;45557;50.298;18.930;2022-07-11T01:42:49;5.30;;;1.90;;
59689;SDS011;45557;50.298;18.930;2022-07-11T01:49:36;2.60;;;1.20;;
59689;SDS011;45557;50.298;18.930;2022-07-11T01:57:03;4.80;;;1.90;;
59689;SDS011;45557;50.298;18.930;2022-07-11T02:03:46;4.00;;;1.80;;
59689;SDS011;45557;50.298;18.930;2022-07-11T02:10:36;5.20;;;1.50;;
59689;SDS011;45557;50.298;18.930;2022-07-11T02:17:26;4.90;;;1.80;;
59689;SDS011;45557;50.298;18.930;2022-07-11T02:24:13;4.90;;;1.30;;
59689;SDS011;45557;50.298;18.930;2022-07-11T02:30:57;3.50;;;1.30;;
59689;SDS011;45557;50.298;18.930;2022-07-11T02:38:15;5.60;;;1.70;;
59689;SDS011;45557;50.298;18.930;2022-07-11T02:45:00;3.80;;;1.10;;
59689;SDS011;45557;50.298;18.930;2022-07-11T02:51:47;4.10;;;1.50;;
59689;SDS011;45557;50.298;18.930;2022-07-11T02:59:07;2.90;;;1.40;;
59689;SDS011;45557;50.298;18.930;2022-07-11T03:06:09;4.10;;;1.50;;
59689;SDS011;45557;50.298;18.930;2022-07-11T03:12:55;3.40;;;1.60;;
59689;SDS011;45557;50.298;18.930;2022-07-11T03:19:38;7.00;;;1.50;;
59689;SDS011;45557;50.298;18.930;2022-07-11T03:32:55;6.00;;;2.00;;
59689;SDS011;45557;50.298;18.930;2022-07-11T03:39:39;2.40;;;1.20;;
59689;SDS011;45557;50.298;18.930;2022-07-11T03:46:49;5.20;;;1.90;;
59689;SDS011;45557;50.298;18.930;2022-07-11T03:53:36;6.60;;;1.60;;
59689;SDS011;45557;50.298;18.930;2022-07-11T04:00:24;5.30;;;1.70;;
59689;SDS011;45557;50.298;18.930;2022-07-11T04:07:14;5.60;;;1.70;;
59689;SDS011;45557;50.298;18.930;2022-07-11T04:14:23;7.30;;;2.60;;
59689;SDS011;45557;50.298;18.930;2022-07-11T04:21:31;6.20;;;2.10;;
59689;SDS011;45557;50.298;18.930;2022-07-11T04:28:16;8.30;;;2.70;;
59689;SDS011;45557;50.298;18.930;2022-07-11T04:35:06;7.60;;;2.70;;
59689;SDS011;45557;50.298;18.930;2022-07-11T04:41:47;7.40;;;3.00;;
59689;SDS011;45557;50.298;18.930;2022-07-11T04:48:41;8.40;;;2.90;;
59689;SDS011;45557;50.298;18.930;2022-07-11T04:56:03;6.90;;;3.00;;
59689;SDS011;45557;50.298;18.930;2022-07-11T05:03:14;6.00;;;2.40;;
59689;SDS011;45557;50.298;18.930;2022-07-11T05:09:58;6.10;;;2.40;;
59689;SDS011;45557;50.298;18.930;2022-07-11T05:16:43;8.10;;;2.80;;
59689;SDS011;45557;50.298;18.930;2022-07-11T05:23:49;6.20;;;2.90;;
59689;SDS011;45557;50.298;18.930;2022-07-11T05:30:34;7.80;;;2.80;;
59689;SDS011;45557;50.298;18.930;2022-07-11T05:37:21;8.80;;;3.50;;
59689;SDS011;45557;50.298;18.930;2022-07-11T05:44:12;8.00;;;2.70;;
59689;SDS011;45557;50.298;18.930;2022-07-11T05:50:58;6.30;;;2.60;;
59689;SDS011;45557;50.298;18.930;2022-07-11T06:12:54;6.80;;;2.70;;
59689;SDS011;45557;50.298;18.930;2022-07-11T08:52:55;4.80;;;1.40;;
59689;SDS011;45557;50.298;18.930;2022-07-11T08:58:57;4.30;;;1.40;;
59689;SDS011;45557;50.298;18.930;2022-07-11T09:10:50;2.80;;;1.20;;
59689;SDS011;45557;50.298;18.930;2022-07-11T09:22:53;3.40;;;0.90;;
59689;SDS011;45557;50.298;18.930;2022-07-11T09:28:31;5.30;;;1.10;;
59689;SDS011;45557;50.298;18.930;2022-07-11T09:35:48;3.70;;;1.60;;
59689;SDS011;45557;50.298;18.930;2022-07-11T09:41:32;5.40;;;1.20;;
59689;SDS011;45557;50.298;18.930;2022-07-11T09:48:00;5.70;;;0.90;;
59689;SDS011;45557;50.298;18.930;2022-07-11T09:53:54;3.20;;;1.10;;
59689;SDS011;45557;50.298;18.930;2022-07-11T09:59:35;5.80;;;1.10;;
59689;SDS011;45557;50.298;18.930;2022-07-11T10:45:56;6.70;;;2.40;;
59689;SDS011;45557;50.298;18.930;2022-07-11T10:52:53;3.20;;;1.30;;
59689;SDS011;45557;50.298;18.930;2022-07-11T10:59:54;3.20;;;1.10;;
59689;SDS011;45557;50.298;18.930;2022-07-11T11:06:22;4.60;;;1.50;;
59689;SDS011;45557;50.298;18.930;2022-07-11T11:13:19;5.10;;;0.90;;
59689;SDS011;45557;50.298;18.930;2022-07-11T11:20:04;2.20;;;0.70;;
59689;SDS011;45557;50.298;18.930;2022-07-11T11:27:03;2.00;;;0.70;;
59689;SDS011;45557;50.298;18.930;2022-07-11T11:33:47;2.60;;;1.10;;
59689;SDS011;45557;50.298;18.930;2022-07-11T11:40:31;5.80;;;1.20;;
59689;SDS011;45557;50.298;18.930;2022-07-11T11:47:16;3.30;;;0.80;;
59689;SDS011;45557;50.298;18.930;2022-07-11T11:54:01;2.50;;;0.90;;
59689;SDS011;45557;50.298;18.930;2022-07-11T12:00:41;4.20;;;1.30;;
59689;SDS011;45557;50.298;18.930;2022-07-11T12:07:27;5.50;;;1.50;;
59689;SDS011;45557;50.298;18.930;2022-07-11T12:14:18;3.20;;;1.20;;
59689;SDS011;45557;50.298;18.930;2022-07-11T12:21:43;2.00;;;1.10;;
59689;SDS011;45557;50.298;18.930;2022-07-11T12:36:02;2.00;;;1.10;;
59689;SDS011;45557;50.298;18.930;2022-07-11T12:42:50;3.50;;;1.40;;
59689;SDS011;45557;50.298;18.930;2022-07-11T12:49:34;2.80;;;1.20;;
59689;SDS011;45557;50.298;18.930;2022-07-11T13:31:21;1.20;;;0.60;;
59689;SDS011;45557;50.298;18.930;2022-07-11T14:35:02;1.70;;;1.00;;
59689;SDS011;45557;50.298;18.930;2022-07-11T14:59:13;5.50;;;2.10;;
59689;SDS011;45557;50.298;18.930;2022-07-11T15:05:54;3.60;;;1.50;;
59689;SDS011;45557;50.298;18.930;2022-07-11T15:11:41;3.90;;;0.90;;
59689;SDS011;45557;50.298;18.930;2022-07-11T15:17:45;4.60;;;1.60;;
59689;SDS011;45557;50.298;18.930;2022-07-11T15:24:28;8.80;;;1.50;;
59689;SDS011;45557;50.298;18.930;2022-07-11T15:31:15;1.70;;;0.90;;
59689;SDS011;45557;50.298;18.930;2022-07-11T15:37:57;4.80;;;1.10;;
